Time;durP1;ratioP1;P1;durP2;ratioP2;P2;SDS_P1;SDS_P2;PMS_P1;PMS_P2;Temp;Humidity;BMP_temperature;BMP_pressure;BME280_temperature;BME280_humidity;BME280_pressure;Samples;Min_cycle;Max_cycle;Signal;HPM_P1;HPM_P2
2023/03/24 00:02:23;;;;;;;9.85;4.20;;;13.30;99.90;;;;;;7396810;19;19930;-74
2023/03/24 00:04:52;;;;;;;13.15;3.88;;;13.30;99.90;;;;;;7399265;19;19919;-75
2023/03/24 00:07:18;;;;;;;10.45;4.53;;;13.20;99.90;;;;;;7398119;19;19929;-76
2023/03/24 00:09:45;;;;;;;11.05;3.72;;;13.20;99.90;;;;;;7400728;19;19917;-74
2023/03/24 00:12:12;;;;;;;11.88;3.95;;;13.20;99.90;;;;;;7397988;19;19935;-74
2023/03/24 00:14:39;;;;;;;9.30;3.60;;;13.20;99.90;;;;;;7396625;19;20319;-74
2023/03/24 00:17:08;;;;;;;7.05;2.88;;;13.20;99.90;;;;;;7395476;19;19925;-74
2023/03/24 00:19:38;;;;;;;9.57;2.90;;;13.20;99.90;;;;;;7401532;19;19925;-74
2023/03/24 00:22:13;;;;;;;6.03;2.88;;;13.20;99.90;;;;;;7397561;19;19986;-74
2023/03/24 00:24:39;;;;;;;6.35;2.83;;;13.20;99.90;;;;;;7397288;19;19978;-74
2023/03/24 00:27:06;;;;;;;8.23;2.80;;;13.30;99.90;;;;;;7395320;19;19915;-74
2023/03/24 00:29:32;;;;;;;9.57;2.65;;;13.40;99.90;;;;;;7401409;19;19928;-74
2023/03/24 00:31:58;;;;;;;8.98;3.30;;;13.50;99.90;;;;;;7401222;19;19930;-75
2023/03/24 00:34:24;;;;;;;9.98;3.10;;;13.50;99.90;;;;;;7212000;19;2990801;-74
2023/03/24 00:36:51;;;;;;;12.13;3.30;;;13.60;99.90;;;;;;7397156;19;19918;-74
2023/03/24 00:39:20;;;;;;;9.60;3.05;;;13.70;99.90;;;;;;7375701;19;19921;-74
2023/03/24 00:41:47;;;;;;;8.88;3.28;;;13.80;99.90;;;;;;7398398;19;19914;-75
2023/03/24 00:44:16;;;;;;;10.85;3.50;;;13.80;99.90;;;;;;7400465;19;19946;-74
2023/03/24 00:46:54;;;;;;;12.23;3.70;;;13.90;99.90;;;;;;7398919;19;19907;-74
2023/03/24 00:49:43;;;;;;;11.07;2.97;;;13.90;99.90;;;;;;7396520;19;19918;-75
2023/03/24 00:52:17;;;;;;;10.63;3.75;;;14.00;99.90;;;;;;7400199;19;19919;-74
2023/03/24 00:54:44;;;;;;;9.80;3.67;;;14.00;99.90;;;;;;7396881;19;19926;-74
2023/03/24 00:57:20;;;;;;;11.15;3.17;;;14.00;99.90;;;;;;7396605;19;19906;-74
2023/03/24 00:59:50;;;;;;;8.52;3.45;;;14.10;99.90;;;;;;7377748;19;19993;-74
2023/03/24 01:02:21;;;;;;;9.23;3.63;;;14.20;99.90;;;;;;7397639;19;19943;-73
2023/03/24 01:04:56;;;;;;;13.43;4.28;;;14.20;99.90;;;;;;7397314;19;19930;-74
2023/03/24 01:07:23;;;;;;;10.13;3.33;;;14.10;99.90;;;;;;7397943;19;19918;-74
2023/03/24 01:09:58;;;;;;;12.80;3.45;;;14.20;99.90;;;;;;7397968;19;20333;-73
2023/03/24 01:12:35;;;;;;;12.73;4.15;;;14.20;99.90;;;;;;7396062;19;19942;-74
2023/03/24 01:15:06;;;;;;;11.85;3.90;;;14.20;99.90;;;;;;7398566;19;19967;-74
2023/03/24 01:17:33;;;;;;;14.43;4.10;;;14.20;99.90;;;;;;7397407;19;20608;-73
2023/03/24 01:19:59;;;;;;;12.27;3.33;;;14.20;99.90;;;;;;7401164;19;19915;-73
2023/03/24 01:22:29;;;;;;;10.63;3.05;;;14.20;99.90;;;;;;7396132;19;19982;-73
2023/03/24 01:24:55;;;;;;;9.57;3.28;;;14.30;99.90;;;;;;7396506;19;19942;-73
2023/03/24 01:27:22;;;;;;;12.43;4.95;;;14.20;99.90;;;;;;7396523;19;19952;-74
2023/03/24 01:29:49;;;;;;;11.15;3.90;;;14.30;99.90;;;;;;7400732;19;19926;-74
2023/03/24 01:32:15;;;;;;;10.07;3.60;;;14.20;99.90;;;;;;7404087;19;20010;-74
2023/03/24 01:34:41;;;;;;;14.02;3.90;;;14.20;99.90;;;;;;7404198;19;19923;-73
2023/03/24 01:37:06;;;;;;;11.00;3.97;;;14.10;99.90;;;;;;7383968;19;19910;-73
2023/03/24 01:39:32;;;;;;;8.52;3.63;;;14.00;99.90;;;;;;7403145;19;19918;-74
2023/03/24 01:41:58;;;;;;;10.77;3.63;;;14.00;99.90;;;;;;7406028;19;19922;-74
2023/03/24 01:44:29;;;;;;;13.27;3.70;;;14.00;99.90;;;;;;7406484;19;19922;-74
2023/03/24 01:46:56;;;;;;;9.98;3.90;;;13.90;99.90;;;;;;7404767;19;19927;-73
2023/03/24 01:49:26;;;;;;;14.68;4.82;;;13.90;99.90;;;;;;7403303;19;20314;-73
2023/03/24 01:51:56;;;;;;;10.00;3.75;;;13.80;99.90;;;;;;7405018;19;19922;-74
2023/03/24 01:54:26;;;;;;;8.63;3.50;;;13.80;99.90;;;;;;7404923;19;20280;-74
2023/03/24 01:57:22;;;;;;;11.82;3.92;;;13.80;99.90;;;;;;7406908;19;19954;-74
2023/03/24 01:59:52;;;;;;;12.93;3.70;;;13.80;99.90;;;;;;7402664;19;20660;-74
2023/03/24 02:02:20;;;;;;;12.15;3.97;;;13.70;99.90;;;;;;7402842;19;19932;-74
2023/03/24 02:04:52;;;;;;;10.85;3.72;;;13.70;99.90;;;;;;7400784;19;20362;-74
2023/03/24 02:07:35;;;;;;;15.15;4.70;;;13.70;99.90;;;;;;7404867;19;20394;-74
2023/03/24 02:10:15;;;;;;;8.95;3.53;;;13.70;99.90;;;;;;7404524;19;19974;-74
2023/03/24 02:12:42;;;;;;;11.20;3.97;;;13.70;99.90;;;;;;7404650;19;19950;-75
2023/03/24 02:15:09;;;;;;;8.88;4.07;;;13.60;99.90;;;;;;7404873;19;19922;-74
2023/03/24 02:18:17;;;;;;;11.10;3.80;;;13.60;99.90;;;;;;7403405;19;19915;-73
2023/03/24 02:21:27;;;;;;;9.07;3.38;;;13.50;99.90;;;;;;7400429;19;19914;-73
2023/03/24 02:24:41;;;;;;;10.00;3.95;;;13.50;99.90;;;;;;7400518;19;20342;-73
2023/03/24 02:27:31;;;;;;;10.23;3.47;;;13.40;99.90;;;;;;7375079;19;19915;-73
2023/03/24 02:30:15;;;;;;;7.85;3.80;;;13.40;99.90;;;;;;7400543;19;19930;-73
2023/03/24 02:33:33;;;;;;;8.90;3.97;;;13.40;99.90;;;;;;7403920;19;20394;-73
2023/03/24 02:36:04;;;;;;;12.52;5.28;;;13.40;99.90;;;;;;7399174;19;20282;-74
2023/03/24 02:38:52;;;;;;;8.27;3.70;;;13.50;99.90;;;;;;7403761;19;19925;-73
2023/03/24 02:41:29;;;;;;;13.95;3.78;;;13.40;99.90;;;;;;7399455;19;19925;-73
2023/03/24 02:44:10;;;;;;;10.68;3.50;;;13.40;99.90;;;;;;7403665;19;19921;-73
2023/03/24 02:46:49;;;;;;;13.93;3.78;;;13.30;99.90;;;;;;7404170;19;19950;-74
2023/03/24 02:49:36;;;;;;;11.32;4.03;;;13.20;99.90;;;;;;7403728;19;19984;-73
2023/03/24 02:52:31;;;;;;;9.70;3.70;;;13.20;99.90;;;;;;7401000;19;19918;-73
2023/03/24 02:55:04;;;;;;;10.10;3.78;;;13.10;99.90;;;;;;7401276;19;19911;-74
2023/03/24 02:57:35;;;;;;;12.15;3.67;;;13.10;99.90;;;;;;7403736;19;20304;-74
2023/03/24 03:00:20;;;;;;;9.18;3.90;;;13.10;99.90;;;;;;7383781;19;20461;-73
2023/03/24 03:03:15;;;;;;;10.88;4.18;;;13.00;99.90;;;;;;7380950;19;19939;-73
2023/03/24 03:06:12;;;;;;;9.73;3.33;;;12.90;99.90;;;;;;7403136;19;19985;-73
2023/03/24 03:08:39;;;;;;;11.75;3.92;;;12.90;99.90;;;;;;7400999;19;19910;-73
2023/03/24 03:11:11;;;;;;;11.77;3.60;;;12.90;99.90;;;;;;7401899;19;20012;-74
2023/03/24 03:13:42;;;;;;;14.07;3.95;;;13.00;99.90;;;;;;7402598;19;19978;-74
2023/03/24 03:16:16;;;;;;;10.55;3.92;;;13.10;99.90;;;;;;7401645;19;19932;-74
2023/03/24 03:18:50;;;;;;;8.95;3.25;;;13.20;99.90;;;;;;7404132;19;19919;-73
2023/03/24 03:21:20;;;;;;;9.93;3.58;;;13.10;99.90;;;;;;7401681;19;19914;-74
2023/03/24 03:23:53;;;;;;;9.32;3.30;;;13.00;99.90;;;;;;7403232;19;19929;-74
2023/03/24 03:26:25;;;;;;;;;;;12.90;99.90;;;;;;7405654;19;19925;-73
2023/03/24 03:28:56;;;;;;;9.15;3.15;;;13.00;99.90;;;;;;7402877;19;19925;-73
2023/03/24 03:31:34;;;;;;;10.70;3.47;;;13.10;99.90;;;;;;7401076;19;20382;-73
2023/03/24 03:34:36;;;;;;;13.18;3.75;;;13.00;99.90;;;;;;7402648;19;19943;-72
2023/03/24 03:37:17;;;;;;;11.88;2.97;;;13.00;99.90;;;;;;7401840;19;19915;-73
2023/03/24 03:39:55;;;;;;;8.13;3.70;;;12.90;99.90;;;;;;7402004;19;20271;-73
2023/03/24 03:42:21;;;;;;;12.30;3.55;;;13.00;99.90;;;;;;7400258;19;20275;-74
2023/03/24 03:44:47;;;;;;;13.57;4.32;;;13.00;99.90;;;;;;7402758;19;19935;-72
2023/03/24 03:47:14;;;;;;;8.93;4.18;;;13.00;99.90;;;;;;7365670;19;19918;-74
2023/03/24 03:49:40;;;;;;;15.93;4.63;;;12.90;99.90;;;;;;7372194;19;19910;-73
2023/03/24 03:52:08;;;;;;;11.80;4.35;;;12.90;99.90;;;;;;7398018;19;19922;-73
2023/03/24 03:54:36;;;;;;;7.63;3.58;;;12.80;99.90;;;;;;7371710;19;19922;-73
2023/03/24 03:57:02;;;;;;;9.45;3.78;;;12.80;99.90;;;;;;7403176;19;20314;-74
2023/03/24 03:59:35;;;;;;;10.40;3.65;;;12.70;99.90;;;;;;7400061;19;19926;-74
2023/03/24 04:02:32;;;;;;;8.35;3.80;;;12.70;99.90;;;;;;7400733;19;19940;-73
2023/03/24 04:05:01;;;;;;;14.23;4.18;;;12.80;99.90;;;;;;7400843;19;20387;-75
2023/03/24 04:08:04;;;;;;;13.15;4.15;;;12.80;99.90;;;;;;7399901;19;19935;-74
2023/03/24 04:11:07;;;;;;;9.50;3.88;;;12.90;99.90;;;;;;7401334;19;19915;-74
2023/03/24 04:13:51;;;;;;;8.50;3.58;;;13.00;99.90;;;;;;7399030;19;19911;-73
2023/03/24 04:16:17;;;;;;;13.13;3.78;;;13.00;99.90;;;;;;7398536;19;19930;-74
2023/03/24 04:19:01;;;;;;;14.27;4.47;;;12.90;99.90;;;;;;7402145;19;19919;-73
2023/03/24 04:21:38;;;;;;;11.68;4.25;;;12.80;99.90;;;;;;7402670;19;20282;-74
2023/03/24 04:24:16;;;;;;;11.10;3.80;;;12.80;99.90;;;;;;7399875;19;20246;-74
2023/03/24 04:26:59;;;;;;;11.52;3.75;;;12.70;99.90;;;;;;7400264;19;19919;-73
2023/03/24 04:29:41;;;;;;;8.73;3.72;;;12.80;99.90;;;;;;7401634;19;19937;-73
2023/03/24 04:32:18;;;;;;;12.35;3.85;;;12.70;99.90;;;;;;7401888;19;19915;-74
2023/03/24 04:34:49;;;;;;;13.68;3.83;;;12.60;99.90;;;;;;7370687;19;19958;-73
2023/03/24 04:37:23;;;;;;;9.43;3.85;;;12.60;99.90;;;;;;7399611;19;19936;-73
2023/03/24 04:39:52;;;;;;;10.18;3.60;;;12.60;99.90;;;;;;7402011;19;19923;-74
2023/03/24 04:42:47;;;;;;;13.20;3.75;;;12.60;99.90;;;;;;7398422;19;19925;-74
2023/03/24 04:45:15;;;;;;;11.65;3.53;;;12.60;99.90;;;;;;7401183;19;19917;-73
2023/03/24 04:47:52;;;;;;;10.15;3.72;;;12.50;99.90;;;;;;7399609;19;19924;-74
2023/03/24 04:50:41;;;;;;;10.32;3.72;;;12.50;99.90;;;;;;7399970;19;19918;-74
2023/03/24 04:53:10;;;;;;;11.65;4.00;;;12.50;99.90;;;;;;7401149;19;19918;-73
2023/03/24 04:55:53;;;;;;;11.70;3.88;;;12.50;99.90;;;;;;7401256;19;20358;-74
2023/03/24 04:58:22;;;;;;;10.40;3.88;;;12.40;99.90;;;;;;7399947;19;19941;-72
2023/03/24 05:00:48;;;;;;;12.05;4.70;;;12.40;99.90;;;;;;7401626;19;19978;-73
2023/03/24 05:03:15;;;;;;;9.68;3.92;;;12.40;99.90;;;;;;7400515;19;19919;-74
2023/03/24 05:05:47;;;;;;;9.40;3.88;;;12.40;99.90;;;;;;7384332;19;19971;-73
2023/03/24 05:08:14;;;;;;;8.40;3.97;;;12.50;99.90;;;;;;7403670;19;20711;-73
2023/03/24 05:10:40;;;;;;;10.93;3.88;;;12.50;99.90;;;;;;7404493;19;20247;-73
2023/03/24 05:13:06;;;;;;;12.60;3.63;;;12.50;99.90;;;;;;7404107;19;19918;-74
2023/03/24 05:15:33;;;;;;;11.55;3.20;;;12.50;99.90;;;;;;7406148;19;19978;-73
2023/03/24 05:17:59;;;;;;;11.52;4.05;;;12.50;99.90;;;;;;7406424;19;19944;-74
2023/03/24 05:20:25;;;;;;;11.32;3.47;;;12.40;99.90;;;;;;7403609;19;20236;-74
2023/03/24 05:22:51;;;;;;;9.23;3.22;;;12.40;99.90;;;;;;7407406;19;19918;-73
2023/03/24 05:25:18;;;;;;;10.20;3.63;;;12.40;99.90;;;;;;7405362;19;19933;-75
2023/03/24 05:27:44;;;;;;;8.77;3.90;;;12.40;99.90;;;;;;7405797;19;19914;-73
2023/03/24 05:30:10;;;;;;;11.85;3.92;;;12.50;99.90;;;;;;7373512;19;19914;-74
2023/03/24 05:32:36;;;;;;;8.95;3.95;;;12.50;99.90;;;;;;7407953;19;20637;-72
2023/03/24 05:35:03;;;;;;;9.95;3.75;;;12.40;99.90;;;;;;7406330;19;19932;-75
2023/03/24 05:37:29;;;;;;;10.38;4.22;;;12.40;99.90;;;;;;7407309;19;19910;-74
2023/03/24 05:39:55;;;;;;;11.43;4.80;;;12.30;99.90;;;;;;7408254;19;19907;-73
2023/03/24 05:42:21;;;;;;;18.42;7.32;;;12.30;99.90;;;;;;7371128;19;19922;-73
2023/03/24 05:44:47;;;;;;;10.93;4.25;;;12.30;99.90;;;;;;7407203;19;19922;-75
2023/03/24 05:47:15;;;;;;;9.75;3.72;;;12.30;99.90;;;;;;7402699;19;19918;-75
2023/03/24 05:49:47;;;;;;;9.35;4.35;;;12.40;99.90;;;;;;7407658;19;19911;-73
2023/03/24 05:52:15;;;;;;;9.20;3.90;;;12.30;99.90;;;;;;7403429;19;19943;-73
2023/03/24 05:54:41;;;;;;;11.40;3.95;;;12.30;99.90;;;;;;7406396;19;19915;-74
2023/03/24 05:57:11;;;;;;;8.38;4.00;;;12.30;99.90;;;;;;7383729;19;19919;-74
2023/03/24 05:59:37;;;;;;;10.10;3.90;;;12.30;99.90;;;;;;7405238;19;19922;-74
2023/03/24 06:02:03;;;;;;;10.38;4.55;;;12.40;99.90;;;;;;7404323;19;19942;-74
2023/03/24 06:04:29;;;;;;;9.43;3.63;;;12.40;99.90;;;;;;7374169;19;20342;-72
2023/03/24 06:07:00;;;;;;;14.40;4.82;;;12.40;99.90;;;;;;7404991;19;19925;-73
2023/03/24 06:09:34;;;;;;;12.38;4.20;;;12.50;99.90;;;;;;7406452;19;19910;-74
2023/03/24 06:12:04;;;;;;;14.20;4.82;;;12.60;99.90;;;;;;7405612;19;19939;-74
2023/03/24 06:14:32;;;;;;;11.27;5.63;;;12.60;99.90;;;;;;7407227;19;19918;-74
2023/03/24 06:16:58;;;;;;;14.77;5.28;;;12.70;99.90;;;;;;7402716;19;20326;-73
2023/03/24 06:19:29;;;;;;;10.45;4.90;;;12.70;99.90;;;;;;7372486;19;19945;-74
2023/03/24 06:22:01;;;;;;;15.85;6.40;;;12.80;99.90;;;;;;7405141;19;19914;-74
2023/03/24 06:24:27;;;;;;;15.30;7.25;;;12.80;99.90;;;;;;7403258;19;20389;-74
2023/03/24 06:27:00;;;;;;;19.17;10.00;;;12.90;99.90;;;;;;7405698;19;19983;-74
2023/03/24 06:29:28;;;;;;;17.13;8.02;;;12.90;99.90;;;;;;7403836;19;19914;-74
2023/03/24 06:31:54;;;;;;;18.33;7.78;;;12.90;99.90;;;;;;7406418;19;19928;-73
2023/03/24 06:34:21;;;;;;;17.70;8.63;;;13.00;99.90;;;;;;7404205;19;19919;-73
2023/03/24 06:36:47;;;;;;;17.83;8.82;;;13.00;99.90;;;;;;7405198;19;19927;-74
2023/03/24 06:39:12;;;;;;;19.50;9.13;;;13.00;99.90;;;;;;7408907;19;19925;-73
2023/03/24 06:41:38;;;;;;;20.58;8.43;;;12.90;99.90;;;;;;7403577;19;19931;-74
2023/03/24 06:44:04;;;;;;;17.20;8.57;;;12.90;99.90;;;;;;7403863;19;19958;-73
2023/03/24 06:46:30;;;;;;;17.92;8.70;;;12.90;99.90;;;;;;7405727;19;19925;-73
2023/03/24 06:48:56;;;;;;;18.63;10.27;;;12.90;99.90;;;;;;7404896;19;20259;-74
2023/03/24 06:51:22;;;;;;;16.65;9.80;;;12.90;99.90;;;;;;7370179;19;20266;-74
2023/03/24 06:53:47;;;;;;;20.45;9.32;;;13.00;99.90;;;;;;7404711;19;19986;-73
2023/03/24 06:56:16;;;;;;;19.70;9.60;;;13.00;99.90;;;;;;7403864;19;20335;-72
2023/03/24 06:58:44;;;;;;;19.58;9.68;;;13.10;99.90;;;;;;7404166;19;19915;-74
2023/03/24 07:01:11;;;;;;;16.83;9.10;;;13.20;99.90;;;;;;7404170;19;19918;-73
2023/03/24 07:03:38;;;;;;;19.08;8.48;;;13.40;99.90;;;;;;7406164;19;19939;-74
2023/03/24 07:06:06;;;;;;;17.08;9.48;;;13.50;99.90;;;;;;7404413;19;19918;-73
2023/03/24 07:08:32;;;;;;;16.35;8.55;;;13.60;99.90;;;;;;7405643;19;19923;-73
2023/03/24 07:10:58;;;;;;;15.43;7.60;;;13.80;99.90;;;;;;7405324;19;19919;-73
2023/03/24 07:13:24;;;;;;;16.63;7.78;;;13.90;99.90;;;;;;7403659;19;19918;-73
2023/03/24 07:15:50;;;;;;;20.75;9.35;;;14.00;99.90;;;;;;7406176;19;20798;-72
2023/03/24 07:18:18;;;;;;;14.95;7.32;;;14.20;99.90;;;;;;7404387;19;19918;-74
2023/03/24 07:20:44;;;;;;;18.30;8.15;;;14.20;99.90;;;;;;7402442;19;19922;-73
2023/03/24 07:23:11;;;;;;;16.80;9.02;;;14.30;99.90;;;;;;7402722;19;19918;-73
2023/03/24 07:25:40;;;;;;;21.95;10.13;;;14.50;99.90;;;;;;7379856;19;19923;-73
2023/03/24 07:28:06;;;;;;;17.90;8.30;;;14.60;99.90;;;;;;7397639;19;19924;-73
2023/03/24 07:30:34;;;;;;;16.63;9.05;;;14.70;99.90;;;;;;7403155;19;20267;-72
2023/03/24 07:33:02;;;;;;;18.00;8.82;;;14.80;99.90;;;;;;7401368;19;19928;-73
2023/03/24 07:35:28;;;;;;;16.30;8.90;;;14.90;99.90;;;;;;7403160;19;20344;-73
2023/03/24 07:38:00;;;;;;;17.67;9.65;;;15.10;99.90;;;;;;7401445;19;19923;-74
2023/03/24 07:40:26;;;;;;;21.20;9.85;;;15.20;99.90;;;;;;7382524;19;19929;-74
2023/03/24 07:42:52;;;;;;;22.30;11.10;;;15.40;99.90;;;;;;7401729;19;19922;-74
2023/03/24 07:45:18;;;;;;;22.58;11.18;;;15.50;99.90;;;;;;7395783;19;19922;-75
2023/03/24 07:47:45;;;;;;;22.30;11.02;;;15.70;99.80;;;;;;7405534;19;20335;-74
2023/03/24 07:50:12;;;;;;;20.63;11.18;;;15.70;99.50;;;;;;7402833;19;19919;-74
2023/03/24 07:52:46;;;;;;;23.60;10.98;;;15.80;99.40;;;;;;7405456;19;19915;-74
2023/03/24 07:55:12;;;;;;;24.98;11.95;;;15.80;99.30;;;;;;7399358;19;19922;-73
2023/03/24 07:57:45;;;;;;;20.70;11.95;;;15.90;99.30;;;;;;7405119;19;19915;-74
2023/03/24 08:00:16;;;;;;;23.92;13.70;;;15.90;99.30;;;;;;7402348;19;19919;-73
2023/03/24 08:02:45;;;;;;;24.48;12.38;;;15.90;99.10;;;;;;7394540;19;19959;-74
2023/03/24 08:05:14;;;;;;;23.48;12.57;;;16.00;99.10;;;;;;7396670;19;20335;-73
2023/03/24 08:07:42;;;;;;;21.85;12.10;;;16.10;98.80;;;;;;7392703;19;19918;-75
2023/03/24 08:10:14;;;;;;;22.58;10.85;;;16.20;98.20;;;;;;7390442;19;19923;-74
2023/03/24 08:12:40;;;;;;;21.15;9.30;;;16.50;95.70;;;;;;7384955;19;19919;-74
2023/03/24 08:15:08;;;;;;;24.17;11.02;;;16.90;94.10;;;;;;7389971;19;19914;-74
2023/03/24 08:17:35;;;;;;;23.55;12.82;;;17.00;94.80;;;;;;7386261;19;20259;-74
2023/03/24 08:20:13;;;;;;;22.38;10.90;;;17.00;95.20;;;;;;7398286;19;20249;-73
2023/03/24 08:22:40;;;;;;;21.48;10.68;;;17.20;95.00;;;;;;7387341;19;19922;-74
2023/03/24 08:25:07;;;;;;;18.88;10.75;;;17.30;94.50;;;;;;7396805;19;20296;-74
2023/03/24 08:27:33;;;;;;;26.55;10.55;;;17.60;93.90;;;;;;7399037;19;20349;-73
2023/03/24 08:29:58;;;;;;;18.30;10.88;;;17.80;92.80;;;;;;7392502;19;19922;-74
2023/03/24 08:32:24;;;;;;;22.33;10.95;;;18.00;92.40;;;;;;7380449;19;20466;-74
2023/03/24 08:34:50;;;;;;;19.55;10.77;;;18.20;92.10;;;;;;7396655;19;19914;-76
2023/03/24 08:37:16;;;;;;;19.35;10.02;;;18.50;91.80;;;;;;7394211;19;19930;-74
2023/03/24 08:39:43;;;;;;;15.18;7.07;;;19.60;88.80;;;;;;7399488;19;19911;-74
2023/03/24 08:42:09;;;;;;;16.75;7.30;;;20.20;83.90;;;;;;7397466;19;20324;-74
2023/03/24 08:44:35;;;;;;;18.02;6.93;;;19.70;84.10;;;;;;7402773;19;19944;-74
2023/03/24 08:47:00;;;;;;;17.10;7.43;;;20.80;84.30;;;;;;7394502;19;19927;-74
2023/03/24 08:49:26;;;;;;;19.77;7.47;;;21.60;80.30;;;;;;7399296;19;19930;-74
2023/03/24 08:51:53;;;;;;;14.40;5.13;;;22.30;76.50;;;;;;7410592;19;19941;-75
2023/03/24 08:54:22;;;;;;;8.80;4.13;;;21.70;73.70;;;;;;7344472;19;19918;-75
2023/03/24 08:56:47;;;;;;;7.40;4.55;;;21.70;72.60;;;;;;7400621;19;19922;-74
2023/03/24 08:59:13;;;;;;;10.52;5.80;;;23.00;73.20;;;;;;7406314;19;20239;-74
2023/03/24 09:01:40;;;;;;;7.32;4.20;;;23.60;72.20;;;;;;7393124;19;19946;-74
2023/03/24 09:04:06;;;;;;;6.90;3.28;;;23.90;67.10;;;;;;7404273;19;20351;-74
2023/03/24 09:06:33;;;;;;;5.43;2.47;;;23.80;64.50;;;;;;7405246;19;19950;-74
2023/03/24 09:08:59;;;;;;;5.57;2.60;;;24.10;63.10;;;;;;7401568;19;19918;-75
2023/03/24 09:11:24;;;;;;;6.50;2.60;;;23.80;62.70;;;;;;7401364;19;19930;-73
2023/03/24 09:13:50;;;;;;;5.78;2.70;;;24.10;62.50;;;;;;7396528;19;19919;-73
2023/03/24 09:16:16;;;;;;;6.43;3.13;;;25.40;61.70;;;;;;7399751;19;19914;-76
2023/03/24 09:18:43;;;;;;;5.22;2.85;;;25.20;61.40;;;;;;7402966;19;19918;-74
2023/03/24 09:21:09;;;;;;;7.60;2.97;;;24.20;62.00;;;;;;7405928;19;20352;-74
2023/03/24 09:23:35;;;;;;;9.20;5.07;;;23.30;61.80;;;;;;7389846;19;19911;-73
2023/03/24 09:26:02;;;;;;;18.55;6.70;;;23.00;67.70;;;;;;7377515;19;19918;-75
2023/03/24 09:28:28;;;;;;;14.88;6.03;;;23.00;69.00;;;;;;7370226;19;19914;-73
2023/03/24 09:31:02;;;;;;;18.40;7.07;;;22.80;70.90;;;;;;7399393;19;19940;-75
2023/03/24 09:33:29;;;;;;;10.77;5.70;;;22.60;71.20;;;;;;7400959;19;19978;-74
2023/03/24 09:35:56;;;;;;;13.68;6.63;;;22.10;70.90;;;;;;7401054;19;19922;-76
2023/03/24 09:38:22;;;;;;;14.10;6.72;;;22.20;71.70;;;;;;7402691;19;19923;-74
2023/03/24 09:40:56;;;;;;;14.10;7.03;;;22.80;71.60;;;;;;7390822;19;19914;-73
2023/03/24 09:43:33;;;;;;;13.05;6.90;;;24.20;69.10;;;;;;7401545;19;20344;-74
2023/03/24 09:46:03;;;;;;;15.18;8.52;;;24.40;67.70;;;;;;7399354;19;19927;-75
2023/03/24 09:48:44;;;;;;;14.50;7.05;;;23.70;68.60;;;;;;7395187;19;19923;-75
2023/03/24 09:51:23;;;;;;;11.45;5.68;;;23.20;70.00;;;;;;7401217;19;19923;-75
2023/03/24 09:53:53;;;;;;;15.55;7.90;;;22.30;71.00;;;;;;7405032;19;19927;-74
2023/03/24 09:56:22;;;;;;;6.40;3.78;;;22.30;71.40;;;;;;7406683;19;19918;-74
2023/03/24 09:58:58;;;;;;;10.48;3.70;;;23.40;66.60;;;;;;7408585;19;20339;-73
2023/03/24 10:01:24;;;;;;;18.02;7.63;;;22.80;65.70;;;;;;7404907;19;20345;-74
2023/03/24 10:03:55;;;;;;;14.57;6.38;;;22.40;71.50;;;;;;7408888;19;19926;-74
2023/03/24 10:06:25;;;;;;;19.27;7.45;;;21.60;67.90;;;;;;7404876;19;19937;-73
2023/03/24 10:09:27;;;;;;;15.38;7.75;;;21.60;73.60;;;;;;7409427;19;19953;-74
2023/03/24 10:11:53;;;;;;;13.00;5.03;;;21.70;74.00;;;;;;7405986;19;19914;-74
2023/03/24 10:14:48;;;;;;;19.42;8.25;;;21.60;71.30;;;;;;7405466;19;20236;-74
2023/03/24 10:17:36;;;;;;;17.63;8.32;;;21.90;74.30;;;;;;7405817;19;20319;-74
2023/03/24 10:20:01;;;;;;;12.50;6.18;;;22.30;74.10;;;;;;7406093;19;19915;-74
2023/03/24 10:22:27;;;;;;;18.02;7.50;;;22.40;70.10;;;;;;7409233;19;19930;-74
2023/03/24 10:25:10;;;;;;;15.00;6.10;;;23.00;72.00;;;;;;7408926;19;19911;-74
2023/03/24 10:27:52;;;;;;;10.02;3.55;;;23.10;64.90;;;;;;7405577;19;20323;-74
2023/03/24 10:30:22;;;;;;;5.45;2.70;;;23.30;66.90;;;;;;7408896;19;19922;-74
2023/03/24 10:32:48;;;;;;;6.18;2.60;;;23.70;62.50;;;;;;7409549;19;20280;-74
2023/03/24 10:35:53;;;;;;;6.55;2.55;;;23.60;61.70;;;;;;7406761;19;19910;-74
2023/03/24 10:38:21;;;;;;;9.88;3.45;;;24.10;62.00;;;;;;7405507;19;19922;-74
2023/03/24 10:40:47;;;;;;;13.55;5.05;;;24.50;62.00;;;;;;7407997;19;20293;-75
2023/03/24 10:43:17;;;;;;;13.45;5.05;;;25.20;67.20;;;;;;7405965;19;19935;-74
2023/03/24 10:45:47;;;;;;;15.73;6.75;;;25.70;64.50;;;;;;7407305;19;19938;-73
2023/03/24 10:48:14;;;;;;;12.40;5.43;;;25.00;69.50;;;;;;7384359;19;19918;-74
2023/03/24 10:50:44;;;;;;;12.65;6.00;;;24.30;69.80;;;;;;7406494;19;20260;-73
2023/03/24 10:53:20;;;;;;;14.55;6.00;;;24.70;70.70;;;;;;7404023;19;19915;-73
2023/03/24 10:55:49;;;;;;;11.05;6.15;;;24.60;70.00;;;;;;7407223;19;19994;-74
2023/03/24 10:58:41;;;;;;;13.32;4.97;;;24.60;70.30;;;;;;7403499;19;19974;-74
2023/03/24 11:01:31;;;;;;;12.43;5.63;;;24.40;69.80;;;;;;7402988;19;20010;-74
2023/03/24 11:04:03;;;;;;;16.38;5.78;;;24.50;70.60;;;;;;7408476;19;19911;-75
2023/03/24 11:06:30;;;;;;;13.75;6.25;;;24.20;71.60;;;;;;7404927;19;19939;-73
2023/03/24 11:09:20;;;;;;;16.67;5.22;;;24.70;70.10;;;;;;7406014;19;20313;-74
2023/03/24 11:11:49;;;;;;;14.32;5.60;;;24.70;69.70;;;;;;7402485;19;19915;-73
2023/03/24 11:14:25;;;;;;;16.50;5.55;;;24.60;69.40;;;;;;7404871;19;19986;-73
2023/03/24 11:16:58;;;;;;;14.00;4.95;;;24.50;69.90;;;;;;7405118;19;19914;-73
2023/03/24 11:19:25;;;;;;;10.00;3.65;;;24.10;69.30;;;;;;7404518;19;19929;-74
2023/03/24 11:21:56;;;;;;;12.70;4.53;;;24.10;68.40;;;;;;7405844;19;20325;-73
2023/03/24 11:24:23;;;;;;;8.82;3.63;;;24.80;67.50;;;;;;7403006;19;19914;-74
2023/03/24 11:26:57;;;;;;;;;;;25.20;63.90;;;;;;7357772;19;19918;-73
2023/03/24 11:29:26;;;;;;;13.48;3.63;;;25.70;63.00;;;;;;7402781;19;19947;-73
2023/03/24 11:31:58;;;;;;;9.55;3.58;;;26.20;60.70;;;;;;7383358;19;20006;-73
2023/03/24 11:34:32;;;;;;;11.32;3.13;;;26.20;59.70;;;;;;7400603;19;19918;-74
2023/03/24 11:37:02;;;;;;;14.52;4.25;;;26.70;59.30;;;;;;7407000;19;19935;-74
2023/03/24 11:39:33;;;;;;;12.60;4.63;;;27.00;59.10;;;;;;7383247;19;19918;-75
2023/03/24 11:42:05;;;;;;;15.75;4.95;;;26.30;62.80;;;;;;7405102;19;19957;-73
2023/03/24 11:44:43;;;;;;;13.23;4.68;;;26.60;63.60;;;;;;7405839;19;19926;-74
2023/03/24 11:47:12;;;;;;;;;;;27.00;64.80;;;;;;7404533;19;19929;-74
2023/03/24 11:49:45;;;;;;;11.43;3.78;;;26.00;61.80;;;;;;7404879;19;19921;-74
2023/03/24 11:52:23;;;;;;;15.90;4.57;;;25.50;65.90;;;;;;7399345;19;19935;-74
2023/03/24 11:54:51;;;;;;;10.77;4.30;;;25.00;67.60;;;;;;7402388;19;19953;-74
2023/03/24 11:57:28;;;;;;;10.88;4.32;;;24.50;68.80;;;;;;7404654;19;19935;-73
2023/03/24 11:59:58;;;;;;;11.90;4.25;;;25.00;67.20;;;;;;7397134;19;20315;-73
2023/03/24 12:02:51;;;;;;;9.07;4.10;;;24.50;66.30;;;;;;7400023;19;19911;-74
2023/03/24 12:05:25;;;;;;;12.63;3.03;;;24.50;67.50;;;;;;7397031;19;19935;-73
2023/03/24 12:08:04;;;;;;;11.43;3.72;;;25.60;62.40;;;;;;7402162;19;19921;-74
2023/03/24 12:10:54;;;;;;;10.77;4.30;;;26.60;62.70;;;;;;7402687;19;19915;-74
2023/03/24 12:13:38;;;;;;;13.13;3.83;;;27.60;62.10;;;;;;7397925;19;20010;-73
2023/03/24 12:16:07;;;;;;;13.75;3.53;;;27.20;63.10;;;;;;7400393;19;19915;-73
2023/03/24 12:18:40;;;;;;;12.68;3.95;;;27.00;61.90;;;;;;7404042;19;19995;-75
2023/03/24 12:21:10;;;;;;;10.85;3.80;;;26.70;63.00;;;;;;7377665;19;19930;-74
2023/03/24 12:24:04;;;;;;;10.05;3.67;;;26.30;62.90;;;;;;7403784;19;20239;-75
2023/03/24 12:26:34;;;;;;;14.20;3.83;;;26.50;61.80;;;;;;7399312;19;19925;-74
2023/03/24 12:29:26;;;;;;;10.20;3.40;;;26.60;62.40;;;;;;7348796;19;19926;-74
2023/03/24 12:32:13;;;;;;;13.73;3.38;;;26.60;61.40;;;;;;7402124;19;19939;-73
2023/03/24 12:34:43;;;;;;;14.25;3.55;;;25.90;61.30;;;;;;7402261;19;20344;-74
2023/03/24 12:37:27;;;;;;;13.23;2.92;;;25.40;60.70;;;;;;7401385;19;20054;-74
2023/03/24 12:40:10;;;;;;;8.57;3.00;;;25.60;59.40;;;;;;7404259;19;19919;-74
2023/03/24 12:42:46;;;;;;;12.68;3.13;;;26.60;59.00;;;;;;7396346;19;19983;-75
2023/03/24 12:45:51;;;;;;;8.50;2.90;;;26.60;58.90;;;;;;7396438;19;20303;-74
2023/03/24 12:48:45;;;;;;;11.93;3.42;;;26.50;58.90;;;;;;7397730;19;19922;-74
2023/03/24 12:51:32;;;;;;;13.68;3.47;;;25.60;59.10;;;;;;7395003;19;19934;-74
2023/03/24 12:54:32;;;;;;;10.23;3.10;;;25.70;58.80;;;;;;7397568;19;19918;-74
2023/03/24 12:57:03;;;;;;;11.10;3.08;;;25.90;58.90;;;;;;7392838;19;19910;-75
2023/03/24 12:59:40;;;;;;;9.00;2.50;;;25.90;56.70;;;;;;7395012;19;19911;-73
2023/03/24 13:03:03;;;;;;;13.75;2.78;;;25.50;56.60;;;;;;7395174;19;19915;-73
2023/03/24 13:05:40;;;;;;;8.00;2.80;;;25.80;57.20;;;;;;7337979;19;21498;-73
2023/03/24 13:08:21;;;;;;;5.10;1.55;;;25.80;57.40;;;;;;7392169;19;19918;-74